Time;durP1;ratioP1;P1;durP2;ratioP2;P2;SDS_P1;SDS_P2;PMS_P1;PMS_P2;Temp;Humidity;BMP_temperature;BMP_pressure;BME280_temperature;BME280_humidity;BME280_pressure;Samples;Min_cycle;Max_cycle;Signal;HPM_P1;HPM_P2
2022/08/30 00:01:29;;;;;;;8.00;7.13;;;;;;;20.43;68.44;99570.56;4887226;29;20472;-75
2022/08/30 00:03:57;;;;;;;11.65;8.15;;;;;;;20.40;68.64;99570.06;4886828;29;20937;-75
2022/08/30 00:06:24;;;;;;;7.60;6.27;;;;;;;20.28;68.84;99570.34;4887447;29;20489;-75
2022/08/30 00:08:51;;;;;;;9.90;7.97;;;;;;;20.21;68.92;99571.16;4889699;29;20539;-76
2022/08/30 00:11:22;;;;;;;9.50;7.73;;;;;;;20.19;68.84;99568.63;4886480;29;20563;-76
2022/08/30 00:13:50;;;;;;;8.77;7.90;;;;;;;20.15;68.91;99569.13;4888122;29;20468;-75
2022/08/30 00:16:17;;;;;;;11.03;6.60;;;;;;;20.11;68.99;99569.44;4885677;29;20499;-76
2022/08/30 00:18:43;;;;;;;7.77;6.50;;;;;;;20.11;68.94;99571.25;4886284;29;20595;-75
2022/08/30 00:21:09;;;;;;;8.00;6.87;;;;;;;20.13;68.83;99584.44;4887101;29;21178;-76
2022/08/30 00:23:35;;;;;;;8.20;7.10;;;;;;;20.10;68.73;99573.09;4885312;29;20200;-75
2022/08/30 00:26:01;;;;;;;8.00;7.20;;;;;;;20.08;68.79;99580.41;4898620;29;20585;-76
2022/08/30 00:28:27;;;;;;;7.80;6.37;;;;;;;20.06;68.87;99579.75;4904092;29;20452;-75
2022/08/30 00:30:53;;;;;;;8.57;7.03;;;;;;;20.02;68.88;99583.72;4909721;29;20506;-75
2022/08/30 00:33:19;;;;;;;9.30;8.23;;;;;;;20.01;69.14;99582.06;4905579;29;20393;-76
2022/08/30 00:35:44;;;;;;;15.50;8.10;;;;;;;19.95;69.20;99581.84;4903970;29;20210;-77
2022/08/30 00:38:12;;;;;;;9.93;7.40;;;;;;;19.90;69.66;99571.66;4906154;29;21345;-77
2022/08/30 00:40:40;;;;;;;11.60;8.73;;;;;;;19.91;69.53;99572.50;4906894;29;20218;-76
2022/08/30 00:43:10;;;;;;;9.43;7.53;;;;;;;19.91;69.58;99570.69;4902787;29;20485;-78
2022/08/30 00:45:37;;;;;;;7.43;6.70;;;;;;;19.93;69.68;99575.84;4901777;29;20520;-78
2022/08/30 00:48:04;;;;;;;11.70;7.47;;;;;;;19.95;69.67;99577.34;4904642;29;20609;-75
2022/08/30 00:50:36;;;;;;;7.70;6.73;;;;;;;19.99;69.51;99578.72;4963331;23;20502;-79
2022/08/30 00:53:06;;;;;;;8.80;7.90;;;;;;;20.01;69.29;99565.22;4881188;29;20478;-79
2022/08/30 00:55:32;;;;;;;10.47;8.37;;;;;;;19.99;69.66;99568.06;4875414;29;20594;-79
2022/08/30 00:58:02;;;;;;;13.07;8.83;;;;;;;19.99;69.36;99575.22;4901438;29;20472;-79
2022/08/30 01:00:27;;;;;;;10.30;6.90;;;;;;;19.98;69.34;99568.19;4917215;29;20546;-79
2022/08/30 01:02:53;;;;;;;7.53;6.80;;;;;;;19.96;69.42;99571.03;4922291;29;20546;-79
2022/08/30 01:05:20;;;;;;;9.10;8.20;;;;;;;19.95;69.54;99564.03;4901032;29;20215;-79
2022/08/30 01:07:45;;;;;;;8.63;7.77;;;;;;;19.94;69.51;99575.69;4914198;29;20189;-80
2022/08/30 01:10:13;;;;;;;8.37;7.50;;;;;;;19.93;69.47;99575.84;4901159;29;21064;-79
2022/08/30 01:12:41;;;;;;;13.20;8.60;;;;;;;19.90;69.48;99582.31;4909857;29;20192;-79
2022/08/30 01:15:08;;;;;;;9.00;7.77;;;;;;;19.84;69.70;99577.63;4911837;29;20846;-80
2022/08/30 01:17:34;;;;;;;11.60;8.67;;;;;;;19.76;69.92;99577.56;4910508;29;20485;-80
2022/08/30 01:20:05;;;;;;;9.17;7.90;;;;;;;19.70;69.88;99584.38;4904623;29;20533;-80
2022/08/30 01:22:47;;;;;;;13.90;8.73;;;;;;;19.65;69.92;99583.97;4910221;29;20474;-79
2022/08/30 01:25:15;;;;;;;10.97;8.40;;;;;;;19.58;69.92;99583.78;4899625;29;20458;-80
2022/08/30 01:27:46;;;;;;;9.57;8.30;;;;;;;19.52;70.21;99581.72;4906757;29;20478;-79
2022/08/30 01:30:12;;;;;;;8.80;7.83;;;;;;;19.45;70.49;99576.19;4897887;29;20549;-80
2022/08/30 01:32:41;;;;;;;9.30;8.40;;;;;;;19.38;70.67;99585.78;4908385;29;20870;-80
2022/08/30 01:35:08;;;;;;;10.10;9.00;;;;;;;19.34;70.30;99578.28;4908616;29;20703;-79
2022/08/30 01:37:36;;;;;;;9.30;7.87;;;;;;;19.28;70.76;99577.06;4916946;29;20486;-80
2022/08/30 01:40:02;;;;;;;9.60;7.80;;;;;;;19.21;70.68;99582.16;4908053;29;20475;-80
2022/08/30 01:42:28;;;;;;;9.70;8.70;;;;;;;19.20;70.85;99585.81;4912727;29;20466;-79
2022/08/30 01:44:53;;;;;;;10.50;8.87;;;;;;;19.19;70.93;99577.97;4917329;29;20571;-79
2022/08/30 01:47:20;;;;;;;9.43;6.93;;;;;;;19.17;71.00;99586.13;4903210;29;20204;-79
2022/08/30 01:49:46;;;;;;;12.27;8.17;;;;;;;19.16;70.73;99580.94;4903236;29;20195;-79
2022/08/30 01:52:13;;;;;;;8.07;6.80;;;;;;;19.17;70.56;99588.78;4900025;29;20495;-79
2022/08/30 01:54:42;;;;;;;9.30;6.83;;;;;;;19.17;70.41;99582.59;4893228;29;20483;-80
2022/08/30 01:57:10;;;;;;;8.37;7.40;;;;;;;19.16;70.51;99584.44;4900671;29;20462;-79
2022/08/30 01:59:37;;;;;;;8.27;7.43;;;;;;;19.15;70.55;99589.94;4904220;29;20561;-79
2022/08/30 02:02:03;;;;;;;10.33;7.90;;;;;;;19.15;70.54;99589.94;4905177;29;20804;-79
2022/08/30 02:04:29;;;;;;;10.18;9.18;;;;;;;19.19;71.01;99586.78;4900908;29;21056;-79
2022/08/30 02:06:54;;;;;;;12.00;8.73;;;;;;;19.18;71.16;99586.97;4904553;29;20211;-80
2022/08/30 02:09:20;;;;;;;11.63;8.40;;;;;;;19.13;71.17;99587.41;4907160;29;20209;-80
2022/08/30 02:11:47;;;;;;;9.50;7.77;;;;;;;19.09;71.16;99588.72;4908067;29;20227;-80
2022/08/30 02:14:13;;;;;;;9.00;7.47;;;;;;;19.09;71.17;99585.19;4905627;29;20966;-79
2022/08/30 02:16:39;;;;;;;10.30;8.27;;;;;;;19.10;71.07;99576.25;4898389;29;20519;-80
2022/08/30 02:19:05;;;;;;;8.97;7.50;;;;;;;19.11;71.09;99584.06;4906964;29;20518;-79
2022/08/30 02:21:30;;;;;;;10.23;8.60;;;;;;;19.11;70.88;99578.72;4910060;29;20484;-79
2022/08/30 02:23:55;;;;;;;7.70;6.77;;;;;;;19.12;70.79;99577.75;4913208;29;20218;-80
2022/08/30 02:26:21;;;;;;;7.73;5.73;;;;;;;19.09;70.81;99569.22;4906014;29;20590;-79
2022/08/30 02:28:47;;;;;;;6.33;4.73;;;;;;;19.04;70.65;99572.38;4896069;29;20205;-80
2022/08/30 02:31:13;;;;;;;6.20;4.80;;;;;;;19.01;70.66;99575.34;4901839;29;20231;-80
2022/08/30 02:33:38;;;;;;;8.27;7.10;;;;;;;18.95;70.57;99570.59;4911649;29;20457;-80
2022/08/30 02:36:05;;;;;;;11.33;7.00;;;;;;;18.93;70.61;99572.56;4905793;29;20207;-79
2022/08/30 02:38:31;;;;;;;10.47;8.50;;;;;;;18.89;70.59;99566.72;4899608;29;20215;-79
2022/08/30 02:40:56;;;;;;;9.80;8.10;;;;;;;18.82;70.75;99568.31;4902025;29;20831;-79
2022/08/30 02:43:22;;;;;;;10.30;8.70;;;;;;;18.74;70.74;99563.78;4914788;29;20289;-80
2022/08/30 02:45:47;;;;;;;15.40;7.87;;;;;;;18.67;71.05;99554.69;4921337;29;20220;-79
2022/08/30 02:48:14;;;;;;;9.43;8.40;;;;;;;18.63;71.16;99557.78;4906460;29;21307;-79
2022/08/30 02:50:44;;;;;;;9.77;7.40;;;;;;;18.60;71.46;99552.75;4905515;29;20797;-79
2022/08/30 02:53:10;;;;;;;9.43;7.60;;;;;;;18.61;71.08;99554.47;4899038;29;20477;-79
2022/08/30 02:55:35;;;;;;;9.00;7.37;;;;;;;18.64;71.01;99552.31;4906820;29;20475;-80
2022/08/30 02:58:01;;;;;;;7.70;6.90;;;;;;;18.66;70.80;99542.38;4895896;29;20230;-79
2022/08/30 03:00:27;;;;;;;11.00;7.40;;;;;;;18.66;70.83;99542.38;4896690;29;20213;-79
2022/08/30 03:02:52;;;;;;;22.03;9.83;;;;;;;18.66;70.52;99545.03;4904180;29;20909;-80
2022/08/30 03:05:17;;;;;;;8.40;6.73;;;;;;;18.66;70.58;99542.38;4916950;29;20210;-79
2022/08/30 03:07:46;;;;;;;5.43;4.67;;;;;;;18.57;70.59;99537.94;4904630;29;20206;-80
2022/08/30 03:10:12;;;;;;;3.87;3.43;;;;;;;18.44;70.92;99548.09;4901214;29;20952;-79
2022/08/30 03:12:38;;;;;;;4.23;3.77;;;;;;;18.30;71.16;99555.59;4902120;29;20507;-79
2022/08/30 03:15:05;;;;;;;4.70;4.20;;;;;;;18.18;71.46;99553.31;4904901;29;20546;-79
2022/08/30 03:17:31;;;;;;;6.43;4.30;;;;;;;18.07;71.65;99557.81;4908981;29;20699;-79
2022/08/30 03:20:00;;;;;;;6.43;4.90;;;;;;;17.98;71.83;99550.72;4898461;29;20470;-80
2022/08/30 03:22:27;;;;;;;5.60;4.93;;;;;;;17.90;71.85;99555.91;4902568;29;20283;-80
2022/08/30 03:24:56;;;;;;;6.63;5.20;;;;;;;17.82;72.10;99561.13;4910018;29;20496;-80
2022/08/30 03:27:22;;;;;;;6.50;5.90;;;;;;;17.74;72.20;99559.19;4913432;29;20450;-79
2022/08/30 03:29:48;;;;;;;7.50;5.53;;;;;;;17.69;72.44;99553.47;4902790;29;20417;-80
2022/08/30 03:32:13;;;;;;;6.37;5.77;;;;;;;17.67;72.51;99563.41;4908447;29;20420;-79
2022/08/30 03:34:39;;;;;;;5.20;4.70;;;;;;;17.68;72.30;99554.44;4896159;29;20237;-81
2022/08/30 03:37:04;;;;;;;6.77;5.70;;;;;;;17.69;72.21;99553.47;4904232;29;20562;-80
2022/08/30 03:39:30;;;;;;;9.10;6.80;;;;;;;17.69;72.23;99558.78;4903706;29;20203;-80
2022/08/30 03:41:56;;;;;;;6.03;5.27;;;;;;;17.67;72.32;99553.59;4903061;29;20263;-80
2022/08/30 03:44:21;;;;;;;7.03;5.50;;;;;;;17.62;72.51;99563.00;4905771;29;20511;-80
2022/08/30 03:46:47;;;;;;;7.40;5.70;;;;;;;17.58;72.64;99557.13;4899988;29;20190;-79
2022/08/30 03:49:12;;;;;;;12.33;6.70;;;;;;;17.56;72.51;99553.78;4910692;29;20182;-79
2022/08/30 03:51:38;;;;;;;8.43;6.70;;;;;;;17.58;72.39;99554.47;4907258;29;20213;-79
2022/08/30 03:54:03;;;;;;;7.03;6.17;;;;;;;17.63;72.48;99562.84;4910650;29;21697;-80
2022/08/30 03:56:29;;;;;;;8.20;6.20;;;;;;;17.68;72.30;99567.72;4910691;29;20330;-80
2022/08/30 03:58:54;;;;;;;8.33;5.97;;;;;;;17.72;72.28;99574.44;4910242;29;20210;-79
2022/08/30 04:01:19;;;;;;;7.77;6.30;;;;;;;17.74;72.08;99577.78;4906736;29;20233;-80
2022/08/30 04:03:45;;;;;;;7.47;6.10;;;;;;;17.78;72.01;99575.66;4893686;29;20217;-79
2022/08/30 04:06:11;;;;;;;10.47;7.10;;;;;;;17.79;72.12;99582.69;4906055;29;20201;-79
2022/08/30 04:08:37;;;;;;;9.67;7.57;;;;;;;17.77;72.24;99574.84;4904957;29;20182;-80
2022/08/30 04:11:03;;;;;;;10.53;7.50;;;;;;;17.74;72.50;99572.47;4908002;29;20206;-80
2022/08/30 04:13:29;;;;;;;9.60;6.97;;;;;;;17.70;72.47;99565.75;4910171;29;20425;-79
2022/08/30 04:15:54;;;;;;;10.23;6.90;;;;;;;17.65;72.69;99568.00;4911327;29;21209;-80
2022/08/30 04:18:20;;;;;;;12.80;7.63;;;;;;;17.57;72.99;99565.22;4910157;29;20206;-80
2022/08/30 04:20:46;;;;;;;14.93;7.20;;;;;;;17.51;73.28;99563.16;4910382;29;20690;-79
2022/08/30 04:23:12;;;;;;;7.53;6.83;;;;;;;17.48;73.49;99569.59;4911443;29;20453;-79
2022/08/30 04:25:40;;;;;;;11.10;7.33;;;;;;;17.47;73.48;99571.41;4911985;29;20189;-79
2022/08/30 04:28:06;;;;;;;10.07;7.60;;;;;;;17.45;73.54;99576.03;4910473;29;20422;-79
2022/08/30 04:30:32;;;;;;;13.07;7.97;;;;;;;17.45;73.42;99564.56;4910624;29;20588;-79
2022/08/30 04:32:58;;;;;;;15.30;7.70;;;;;;;17.45;73.41;99565.41;4909633;29;20468;-79
2022/08/30 04:35:24;;;;;;;8.83;7.13;;;;;;;17.47;73.45;99555.47;4915698;29;20541;-79
2022/08/30 04:37:49;;;;;;;12.47;8.43;;;;;;;17.48;73.25;99559.81;4916288;29;20226;-79
2022/08/30 04:40:15;;;;;;;8.60;6.83;;;;;;;17.49;73.33;99557.97;4915483;29;20567;-79
2022/08/30 04:42:43;;;;;;;10.93;7.33;;;;;;;17.54;73.29;99566.34;4912837;29;20242;-79
2022/08/30 04:45:14;;;;;;;13.70;8.30;;;;;;;17.63;73.05;99575.28;4913563;29;20211;-79
2022/08/30 04:47:43;;;;;;;10.00;7.50;;;;;;;17.69;72.90;99574.72;4916414;29;20594;-79
2022/08/30 04:50:11;;;;;;;8.87;6.70;;;;;;;17.72;72.71;99571.78;4915387;29;20456;-79
2022/08/30 04:52:37;;;;;;;8.60;7.60;;;;;;;17.74;72.37;99577.78;4915217;29;20459;-79
2022/08/30 04:55:03;;;;;;;7.63;6.67;;;;;;;17.78;72.30;99584.47;4914613;29;20474;-79
2022/08/30 04:57:28;;;;;;;8.87;6.90;;;;;;;17.82;72.12;99591.22;4913638;29;20212;-79
2022/08/30 04:59:54;;;;;;;10.53;7.37;;;;;;;17.80;72.19;99584.38;4916203;29;20504;-79
2022/08/30 05:02:19;;;;;;;11.47;7.53;;;;;;;17.73;72.23;99583.22;4911640;29;20551;-79
2022/08/30 05:05:38;;;;;;;10.63;6.73;;;;;;;17.67;72.11;99584.66;4913170;29;20198;-79
2022/08/30 05:07:31;;;;;;;7.10;5.83;;;;;;;17.73;71.99;99585.88;4917000;29;20299;-79
2022/08/30 05:09:58;;;;;;;6.40;5.80;;;;;;;17.89;71.58;99584.31;4917718;29;20450;-79
2022/08/30 05:12:24;;;;;;;5.33;4.83;;;;;;;18.10;70.92;99591.25;4916378;29;20443;-79
2022/08/30 05:14:50;;;;;;;11.80;6.83;;;;;;;18.34;70.03;99586.25;4911744;29;20482;-79
2022/08/30 05:17:16;;;;;;;6.50;5.20;;;;;;;18.64;69.16;99583.41;4907864;29;20458;-79
2022/08/30 05:19:41;;;;;;;8.33;5.20;;;;;;;18.92;68.33;99589.53;4911391;29;20481;-79
2022/08/30 05:22:07;;;;;;;6.10;4.73;;;;;;;19.19;67.15;99592.13;4914184;29;20242;-79
2022/08/30 05:24:33;;;;;;;7.10;5.57;;;;;;;19.43;66.48;99594.16;4904397;29;20210;-79
2022/08/30 05:26:59;;;;;;;9.70;6.30;;;;;;;19.67;65.69;99590.03;4908184;29;20829;-79
2022/08/30 05:29:24;;;;;;;8.27;6.77;;;;;;;19.85;65.01;99590.81;4914856;29;20446;-79
2022/08/30 05:31:50;;;;;;;7.70;6.67;;;;;;;19.95;64.67;99596.00;4925469;29;20206;-79
2022/08/30 05:34:15;;;;;;;8.60;6.90;;;;;;;19.93;64.55;99592.69;4914878;29;20213;-79
2022/08/30 05:36:41;;;;;;;9.07;6.50;;;;;;;19.91;64.70;99596.50;4916384;29;20230;-79
2022/08/30 05:39:08;;;;;;;11.33;7.20;;;;;;;19.92;64.76;99598.16;4916479;29;20237;-79
2022/08/30 05:41:35;;;;;;;6.63;5.80;;;;;;;19.95;64.76;99606.69;4913972;29;20238;-79
2022/08/30 05:44:02;;;;;;;7.10;5.97;;;;;;;19.95;64.60;99606.69;4911971;29;20451;-79
2022/08/30 05:46:31;;;;;;;7.90;7.10;;;;;;;20.00;64.46;99609.69;4913997;29;20529;-79
2022/08/30 05:48:58;;;;;;;15.57;12.00;;;;;;;20.06;64.58;99609.09;4912794;29;20443;-79
2022/08/30 05:51:27;;;;;;;12.63;10.53;;;;;;;20.14;64.23;99608.28;4910142;29;20487;-79
2022/08/30 05:53:54;;;;;;;19.80;15.70;;;;;;;20.21;64.39;99603.16;4910137;29;20475;-79
2022/08/30 05:56:22;;;;;;;23.60;16.50;;;;;;;20.31;64.14;99607.38;4912567;29;20457;-79
2022/08/30 05:58:47;;;;;;;19.40;14.13;;;;;;;20.41;63.88;99591.22;4909657;29;20553;-79
2022/08/30 06:01:25;;;;;;;13.30;10.50;;;;;;;20.47;63.78;99593.25;4911209;29;20501;-79
2022/08/30 06:03:51;;;;;;;14.77;12.40;;;;;;;20.54;63.69;99593.47;4913838;29;20219;-79
2022/08/30 06:06:17;;;;;;;14.37;11.47;;;;;;;20.68;63.57;99597.34;4896661;29;20531;-79
2022/08/30 06:08:44;;;;;;;11.37;7.90;;;;;;;20.90;63.28;99591.41;4913260;29;20489;-79
2022/08/30 06:11:11;;;;;;;8.00;7.03;;;;;;;21.18;62.66;99583.91;4908889;29;20228;-79
2022/08/30 06:13:37;;;;;;;8.87;8.00;;;;;;;21.51;61.60;99581.25;4909567;29;20495;-80
2022/08/30 06:16:03;;;;;;;8.50;7.60;;;;;;;21.70;60.38;99580.06;4909158;29;21017;-79
2022/08/30 06:18:29;;;;;;;9.10;7.60;;;;;;;21.86;59.94;99582.69;4911088;29;20221;-79
2022/08/30 06:20:54;;;;;;;12.23;6.20;;;;;;;22.05;59.59;99586.81;4908899;29;20239;-79
2022/08/30 06:23:20;;;;;;;11.50;6.40;;;;;;;22.31;59.40;99583.09;4908158;29;20525;-79
2022/08/30 06:25:45;;;;;;;9.30;5.57;;;;;;;22.67;57.76;99583.38;4908203;29;20575;-80
2022/08/30 06:28:11;;;;;;;9.13;5.70;;;;;;;23.02;56.51;99586.53;4909653;29;20222;-79
2022/08/30 06:30:39;;;;;;;7.63;5.90;;;;;;;23.32;54.78;99586.66;4913827;29;20216;-79
2022/08/30 06:33:05;;;;;;;5.67;5.17;;;;;;;23.54;53.74;99590.31;4921325;29;20493;-80
2022/08/30 06:35:31;;;;;;;6.43;5.27;;;;;;;23.48;53.78;99586.50;4908433;29;21194;-79
2022/08/30 06:37:58;;;;;;;5.40;4.90;;;;;;;23.48;52.81;99588.34;4908872;29;20303;-80
2022/08/30 06:40:23;;;;;;;7.30;5.17;;;;;;;23.36;52.59;99577.25;4911605;29;20489;-79
2022/08/30 06:42:50;;;;;;;14.43;5.43;;;;;;;23.23;52.64;99583.22;4909259;29;20456;-79
2022/08/30 06:45:16;;;;;;;6.77;5.50;;;;;;;23.05;51.71;99582.69;4908737;29;20286;-80
2022/08/30 06:47:43;;;;;;;6.97;5.50;;;;;;;22.86;52.19;99586.63;4908814;29;21117;-79
2022/08/30 06:50:09;;;;;;;8.47;5.70;;;;;;;22.69;52.85;99581.38;4910186;29;20448;-80
2022/08/30 06:52:35;;;;;;;6.30;5.00;;;;;;;22.59;52.93;99577.25;4946960;23;21086;-72
2022/08/30 06:55:00;;;;;;;6.70;5.17;;;;;;;22.52;52.91;99577.97;4936808;28;20468;-73
2022/08/30 06:57:25;;;;;;;8.40;6.20;;;;;;;22.38;53.29;99584.03;4941160;28;20208;-72
2022/08/30 06:59:57;;;;;;;6.50;5.77;;;;;;;22.21;53.96;99585.94;4942909;29;20209;-72
2022/08/30 07:02:24;;;;;;;6.40;5.80;;;;;;;22.08;54.20;99586.47;4941204;28;20220;-72
2022/08/30 07:04:49;;;;;;;10.40;5.93;;;;;;;22.12;54.58;99586.16;4941823;29;20475;-72
2022/08/30 07:07:15;;;;;;;6.33;5.70;;;;;;;22.19;54.75;99595.16;4942718;28;20464;-72
2022/08/30 07:09:42;;;;;;;7.83;5.27;;;;;;;22.17;54.87;99594.47;4941182;29;20263;-72
2022/08/30 07:12:11;;;;;;;6.47;5.60;;;;;;;22.17;54.79;99594.47;4941636;29;20228;-73
2022/08/30 07:14:38;;;;;;;7.07;5.33;;;;;;;22.19;54.71;99587.13;4943460;29;20454;-74
2022/08/30 07:18:49;;;;;;;12.83;5.60;;;;;;;22.17;54.56;99587.28;4940674;29;20464;-73
2022/08/30 07:19:52;;;;;;;29.67;9.50;;;;;;;22.19;54.78;99582.59;4944809;28;21027;-73
2022/08/30 07:22:18;;;;;;;7.10;6.40;;;;;;;22.22;54.93;99590.28;4965970;28;20465;-74
2022/08/30 07:24:44;;;;;;;10.40;7.40;;;;;;;22.47;54.45;99583.00;4966351;28;20916;-73
2022/08/30 07:27:09;;;;;;;6.13;5.50;;;;;;;23.09;53.17;99579.47;4961897;28;20456;-73
2022/08/30 07:29:34;;;;;;;5.93;5.17;;;;;;;23.87;51.04;99572.06;4947242;29;20233;-73
2022/08/30 07:32:00;;;;;;;7.43;5.23;;;;;;;24.71;49.28;99574.41;4946284;29;20303;-73
2022/08/30 07:34:26;;;;;;;8.10;5.97;;;;;;;25.56;47.45;99573.53;4947817;29;20206;-73
2022/08/30 07:36:52;;;;;;;7.47;5.87;;;;;;;26.29;46.09;99566.97;4947652;29;20207;-74
2022/08/30 07:39:18;;;;;;;6.07;5.47;;;;;;;26.94;44.66;99565.53;4947710;29;20472;-73
2022/08/30 07:41:43;;;;;;;7.50;5.17;;;;;;;27.57;43.37;99560.59;4947716;29;20229;-73
2022/08/30 07:44:09;;;;;;;6.63;6.00;;;;;;;28.14;42.12;99565.47;4947899;29;20441;-73
2022/08/30 07:46:37;;;;;;;7.03;5.57;;;;;;;28.55;40.96;99567.84;4947459;29;20574;-74
2022/08/30 07:49:02;;;;;;;6.50;5.90;;;;;;;28.90;40.26;99568.25;4947893;29;20456;-73
2022/08/30 07:51:28;;;;;;;9.77;6.30;;;;;;;29.28;39.80;99567.38;4947743;29;20598;-74
2022/08/30 07:53:54;;;;;;;6.33;5.67;;;;;;;29.56;38.83;99572.31;4947456;29;20725;-74
2022/08/30 07:56:21;;;;;;;10.10;5.60;;;;;;;29.84;38.08;99570.22;4947649;29;20199;-74
2022/08/30 07:58:47;;;;;;;9.00;5.93;;;;;;;30.14;37.94;99563.03;4945842;29;20492;-74
2022/08/30 08:01:13;;;;;;;9.20;6.30;;;;;;;30.24;37.23;99561.69;4946492;29;20474;-74
2022/08/30 08:03:41;;;;;;;9.70;5.80;;;;;;;30.24;37.43;99569.81;4947478;29;20198;-74
2022/08/30 08:06:08;;;;;;;5.93;5.33;;;;;;;30.25;36.84;99575.00;4947316;29;20453;-74
2022/08/30 08:08:35;;;;;;;7.43;5.50;;;;;;;30.26;36.77;99565.00;4946836;28;20471;-74
2022/08/30 08:11:17;;;;;;;8.57;5.60;;;;;;;30.48;36.32;99577.00;4947607;29;21272;-74
2022/08/30 08:13:45;;;;;;;7.50;6.07;;;;;;;30.48;35.79;99577.00;4947361;29;20494;-74
2022/08/30 08:16:10;;;;;;;7.70;6.17;;;;;;;30.56;35.39;99573.97;4952713;28;20503;-74
2022/08/30 08:18:36;;;;;;;8.50;6.23;;;;;;;30.78;34.91;99568.03;4944300;29;20485;-74
2022/08/30 08:21:01;;;;;;;7.03;6.10;;;;;;;30.73;34.73;99570.63;4947065;29;20951;-74
2022/08/30 08:23:28;;;;;;;5.50;5.00;;;;;;;30.79;34.79;99572.44;4945775;29;20241;-73
2022/08/30 08:25:53;;;;;;;6.97;6.30;;;;;;;30.76;34.83;99565.59;4943821;29;20257;-74
2022/08/30 08:28:19;;;;;;;10.30;5.40;;;;;;;30.64;34.85;99573.66;4946267;29;20431;-73
2022/08/30 08:30:45;;;;;;;12.00;6.27;;;;;;;30.68;34.69;99565.91;4944287;29;20281;-74
2022/08/30 08:33:12;;;;;;;5.73;5.10;;;;;;;30.61;34.95;99567.88;4946375;29;20279;-73
2022/08/30 08:35:37;;;;;;;5.20;4.70;;;;;;;30.33;35.27;99557.63;4945872;28;21140;-73
2022/08/30 08:38:03;;;;;;;7.70;6.17;;;;;;;30.20;35.42;99555.88;4947860;29;20482;-74
2022/08/30 08:40:36;;;;;;;8.60;5.63;;;;;;;30.03;35.61;99549.38;4944930;29;20265;-74
2022/08/30 08:43:11;;;;;;;6.07;4.93;;;;;;;30.15;35.93;99553.81;4945253;29;21343;-74
2022/08/30 08:45:54;;;;;;;7.53;5.80;;;;;;;30.48;35.08;99559.91;4941334;28;20490;-73
2022/08/30 08:48:19;;;;;;;7.80;5.17;;;;;;;30.64;35.09;99551.97;4907365;29;20523;-74
2022/08/30 08:53:36;;;;;;;5.60;4.57;;;;;;;30.49;35.29;99548.84;4909197;29;20208;-74
2022/08/30 08:56:11;;;;;;;6.10;5.60;;;;;;;30.25;35.69;99542.50;4909416;29;20463;-74
2022/08/30 08:58:47;;;;;;;6.10;5.43;;;;;;;29.91;36.55;99541.19;4926496;29;20486;-74
2022/08/30 09:01:17;;;;;;;5.77;5.27;;;;;;;29.63;36.93;99552.50;4927828;29;20918;-74
2022/08/30 09:03:44;;;;;;;6.60;6.00;;;;;;;29.43;36.59;99545.38;4926405;29;20497;-74
2022/08/30 09:06:37;;;;;;;4.80;4.30;;;;;;;29.25;37.09;99542.66;4926313;29;20480;-74
2022/08/30 09:09:02;;;;;;;11.50;4.80;;;;;;;29.17;37.17;99540.22;4927882;29;20450;-74
2022/08/30 09:11:31;;;;;;;8.77;5.67;;;;;;;29.06;37.33;99539.06;4927826;29;20482;-74
2022/08/30 09:13:57;;;;;;;5.20;4.67;;;;;;;28.87;37.58;99540.84;4924699;29;20804;-74
2022/08/30 09:16:51;;;;;;;5.23;4.67;;;;;;;28.63;38.43;99545.13;4937632;29;21024;-74
2022/08/30 09:19:29;;;;;;;4.80;4.40;;;;;;;28.50;38.90;99546.03;4945013;28;20482;-74
2022/08/30 09:22:01;;;;;;;5.57;4.43;;;;;;;28.45;39.04;99543.16;4950366;29;21361;-74
2022/08/30 09:24:45;;;;;;;4.97;4.57;;;;;;;28.40;38.94;99540.22;4950370;29;20456;-74
2022/08/30 09:27:26;;;;;;;4.80;4.40;;;;;;;28.34;38.95;99544.63;4949179;29;20457;-74
2022/08/30 09:30:07;;;;;;;5.10;4.67;;;;;;;28.23;39.23;99531.78;4948142;29;20438;-74
2022/08/30 09:32:39;;;;;;;8.77;4.43;;;;;;;28.15;39.40;99537.44;4932879;29;20690;-74
2022/08/30 09:35:08;;;;;;;7.10;4.47;;;;;;;28.09;39.67;99532.91;4947214;29;20454;-74
2022/08/30 09:37:43;;;;;;;5.20;4.80;;;;;;;27.98;39.67;99527.13;4948428;29;20549;-74
2022/08/30 09:40:21;;;;;;;5.40;4.67;;;;;;;27.95;39.58;99527.53;4948076;29;20453;-73
2022/08/30 09:43:23;;;;;;;7.40;4.67;;;;;;;28.04;39.73;99524.59;4948129;29;20470;-73
2022/08/30 09:46:01;;;;;;;5.07;4.50;;;;;;;28.09;39.67;99522.91;4872758;29;20479;-74
2022/08/30 09:48:33;;;;;;;6.30;4.53;;;;;;;28.24;39.32;99512.66;4923596;29;20513;-74
2022/08/30 09:51:10;;;;;;;7.70;4.63;;;;;;;28.32;39.08;99508.88;4928464;29;20561;-74
2022/08/30 09:54:06;;;;;;;4.37;3.97;;;;;;;28.39;39.41;99506.97;4930408;29;20866;-74
2022/08/30 09:56:46;;;;;;;5.70;4.50;;;;;;;28.50;39.21;99512.78;4936212;29;20894;-74
2022/08/30 09:59:28;;;;;;;7.63;5.50;;;;;;;28.63;38.75;99507.31;4946678;29;20478;-75
2022/08/30 10:02:32;;;;;;;5.23;4.73;;;;;;;28.97;38.21;99502.47;4949189;29;20473;-74
2022/08/30 10:05:14;;;;;;;5.30;4.50;;;;;;;29.22;37.87;99503.34;4923779;29;20820;-75
2022/08/30 10:07:59;;;;;;;5.23;4.83;;;;;;;29.48;36.81;99504.94;4947516;29;21003;-75
2022/08/30 10:10:34;;;;;;;4.97;4.40;;;;;;;29.59;36.67;99497.97;4947853;29;20464;-75
2022/08/30 10:13:23;;;;;;;5.20;4.60;;;;;;;29.60;36.41;99496.09;4949627;29;20462;-75
2022/08/30 10:15:56;;;;;;;6.57;5.03;;;;;;;29.63;36.22;99498.38;4947658;29;20473;-75
2022/08/30 10:18:44;;;;;;;7.40;4.50;;;;;;;29.78;35.79;99488.84;4947699;29;20571;-75
2022/08/30 10:21:34;;;;;;;5.33;4.93;;;;;;;29.91;36.10;99487.03;4949152;29;20602;-75
2022/08/30 10:24:08;;;;;;;11.97;4.47;;;;;;;30.13;36.14;99490.09;4949340;29;20846;-74
2022/08/30 10:26:44;;;;;;;6.60;4.80;;;;;;;30.36;35.88;99478.56;4949216;29;20460;-75
2022/08/30 10:29:15;;;;;;;9.70;5.60;;;;;;;30.45;36.01;99484.50;4948928;29;20452;-74
2022/08/30 10:31:47;;;;;;;4.83;4.40;;;;;;;30.47;35.90;99476.97;4948719;28;20525;-75
2022/08/30 10:34:23;;;;;;;5.20;4.80;;;;;;;30.56;35.96;99478.28;4948970;29;20458;-75
2022/08/30 10:37:12;;;;;;;5.33;4.83;;;;;;;30.69;35.83;99482.69;4949137;29;20461;-75
2022/08/30 10:39:45;;;;;;;6.60;4.47;;;;;;;30.66;35.52;99486.69;4948954;29;20617;-75
2022/08/30 10:42:24;;;;;;;5.20;4.30;;;;;;;30.49;35.47;99478.38;4949423;29;20466;-75
2022/08/30 10:44:55;;;;;;;7.97;5.60;;;;;;;30.31;36.33;99486.56;4948473;29;20493;-74
2022/08/30 10:47:40;;;;;;;4.43;3.93;;;;;;;30.23;36.41;99481.47;4947283;29;20465;-75
2022/08/30 10:50:17;;;;;;;6.17;5.50;;;;;;;30.11;36.59;99481.34;4946869;29;20887;-76
2022/08/30 10:53:11;;;;;;;8.97;4.83;;;;;;;30.02;36.64;99480.84;4948710;29;20503;-75
2022/08/30 10:55:56;;;;;;;5.17;4.67;;;;;;;29.98;36.60;99485.09;4947136;29;20462;-75
2022/08/30 10:58:22;;;;;;;5.73;5.13;;;;;;;29.98;36.92;99488.63;4929168;29;20491;-75
2022/08/30 11:01:31;;;;;;;6.03;5.17;;;;;;;30.08;36.86;99481.81;4928856;29;20486;-75
2022/08/30 11:04:05;;;;;;;5.30;4.63;;;;;;;30.19;36.86;99468.34;4921958;29;20215;-75
2022/08/30 11:06:54;;;;;;;6.00;5.03;;;;;;;30.20;36.34;99482.72;4935193;29;20468;-74
2022/08/30 11:09:38;;;;;;;6.70;5.17;;;;;;;30.13;36.64;99477.38;4948370;29;20454;-74
2022/08/30 11:12:29;;;;;;;6.33;5.40;;;;;;;30.14;36.67;99476.34;4948241;29;20469;-75
2022/08/30 11:14:54;;;;;;;5.37;4.83;;;;;;;30.18;36.06;99465.84;4948010;29;20449;-75
2022/08/30 11:17:52;;;;;;;6.60;5.03;;;;;;;30.31;35.88;99464.88;4948230;29;20517;-75
2022/08/30 11:20:43;;;;;;;6.50;4.33;;;;;;;30.43;36.05;99466.59;4947950;29;20214;-75
2022/08/30 11:23:24;;;;;;;6.10;5.50;;;;;;;30.40;35.96;99467.03;4947548;29;20490;-76
2022/08/30 11:25:59;;;;;;;5.97;5.40;;;;;;;30.41;35.90;99460.56;4948005;29;20509;-75
2022/08/30 11:28:33;;;;;;;5.10;4.60;;;;;;;30.50;35.95;99462.94;4946718;29;20452;-75
2022/08/30 11:31:11;;;;;;;8.03;5.73;;;;;;;30.53;35.98;99457.06;4946874;29;20481;-75
2022/08/30 11:33:41;;;;;;;5.85;5.20;;;;;;;30.55;35.30;99452.22;4945182;29;20564;-75
2022/08/30 11:36:08;;;;;;;5.50;4.80;;;;;;;30.48;35.72;99455.03;4947218;29;20289;-75
2022/08/30 11:38:34;;;;;;;5.53;5.03;;;;;;;30.50;36.22;99452.09;4947771;29;20549;-75
2022/08/30 11:41:11;;;;;;;8.20;5.60;;;;;;;30.50;35.87;99446.69;4947559;29;20861;-75
2022/08/30 11:43:38;;;;;;;5.67;5.17;;;;;;;30.46;35.93;99445.47;4945060;28;20234;-76
2022/08/30 11:46:33;;;;;;;6.60;5.37;;;;;;;30.45;36.47;99438.41;4947048;29;21306;-75